KAKR/AKR METAR and TAF weather

Enter ICAO airport designator
Station Type Date Time Source
KAKR METAR 2018/10/16 20:54 UTC NOAA

KAKR 162054Z AUTO 24011G17KT 10SM CLR 13/M02 A3007 RMK AO2 SLP187 T01331017 56022


Station Type Date Time Source
KAKR Decoded METAR 2018/10/16 20:54 UTC NOAA

AKRON FULTON INTERNATIONAL, OH, United States (KAKR) 41-02N 081-28W 363M
Oct 16, 2018 - 04:54 PM EDT / 2018.10.16 2054 UTC
Wind: from the WSW (240 degrees) at 13 MPH (11 KT) gusting to 20 MPH (17 KT):0
Visibility: 10 mile(s):0
Sky conditions: clear
Temperature: 55.9 F (13.3 C)
Dew Point: 28.9 F (-1.7 C)
Relative Humidity: 35%
Pressure (altimeter): 30.07 in. Hg (1018 hPa)
Pressure tendency: 0.06 inches (2.2 hPa) lower than three hours ago
ob: KAKR 162054Z AUTO 24011G17KT 10SM CLR 13/M02 A3007 RMK AO2 SLP187 T01331017 56022
cycle: 21

Station Type Date Time Source
KAKR TAF UTC NOAA

Error!


Example: see airport list